Cartersville, Georgia
Current Conditions -  °F | °C
As of 9:53 AM on Friday 19 Dec 2014 (Local Time) from KVPC Reporting Station
Clear Clear  
Wind Chill: 40°   Ceiling: Unl
Heat Index: 40°   Visibility: 10mi
Dew Point: 31°   Wind: 3mph
Humidity: 70%   Direction: 310°NW
Pressure: 30.21"   Gusts: NA
Location:  34.17°N, 84.79°W
Report Text: KVPC 191453Z AUTO 31003KT 10SM CLR 04/M01 A3021 RMK AO2 SLP230 T00441006 53013
Loading
Personal Weather Stations






























Interactive Weather Map New forecast layout! Learn more

10-Day Weather Forecast

Advertisements
Track Severe Weather on mobile